createdAt,value
2023-04-27T15:33:51.955Z,6.20
2023-04-27T15:36:21.271Z,6.35
2023-04-27T15:38:50.468Z,5.80
2023-04-27T15:41:19.763Z,5.50
2023-04-27T15:43:48.666Z,5.62
2023-04-27T15:46:18.080Z,5.25
2023-04-27T15:48:47.366Z,5.92
2023-04-27T15:51:16.558Z,5.97
2023-04-27T15:53:45.863Z,5.70
2023-04-27T15:56:14.953Z,6.28
2023-04-27T15:58:44.359Z,6.10
2023-04-27T16:01:13.827Z,6.10
2023-04-27T16:03:43.531Z,6.22
2023-04-27T16:06:12.983Z,6.33
2023-04-27T16:08:42.376Z,5.80
2023-04-27T16:11:11.580Z,6.22
2023-04-27T16:13:40.669Z,6.17
2023-04-27T16:16:10.015Z,6.37
2023-04-27T16:18:39.382Z,6.20
2023-04-27T16:21:08.511Z,6.30
2023-04-27T16:23:37.872Z,6.95
2023-04-27T16:26:07.181Z,6.57
2023-04-27T16:28:36.478Z,6.30
2023-04-27T16:31:05.463Z,6.30
2023-04-27T16:33:34.667Z,6.10
2023-04-27T16:36:03.756Z,6.43
2023-04-27T16:38:32.837Z,6.35
2023-04-27T16:41:02.165Z,6.57
2023-04-27T16:43:31.465Z,6.45
2023-04-27T16:46:00.582Z,7.40
2023-04-27T16:48:29.660Z,6.58
2023-04-27T16:50:58.751Z,7.30
2023-04-27T16:53:27.961Z,6.42
2023-04-27T16:55:57.247Z,6.90
2023-04-27T16:58:26.213Z,7.15
2023-04-27T17:00:55.608Z,6.70
2023-04-27T17:03:24.966Z,6.85
2023-04-27T17:05:54.261Z,6.70
2023-04-27T17:08:23.440Z,6.73
2023-04-27T17:10:52.748Z,6.60
2023-04-27T17:13:22.060Z,6.85
2023-04-27T17:15:54.776Z,6.87
2023-04-27T17:18:24.129Z,6.97
2023-04-27T17:20:53.233Z,7.00
2023-04-27T17:23:22.416Z,7.05
2023-04-27T17:25:51.723Z,6.65
2023-04-27T17:28:21.122Z,6.85
2023-04-27T17:30:50.354Z,6.90
2023-04-27T17:33:19.733Z,7.35
2023-04-27T17:35:49.021Z,7.37
2023-04-27T17:38:18.015Z,7.40
2023-04-27T17:40:47.309Z,7.40
2023-04-27T17:43:16.510Z,7.75
2023-04-27T17:45:45.764Z,7.35
2023-04-27T17:48:15.108Z,8.28
2023-04-27T17:50:44.539Z,8.03
2023-04-27T17:53:13.615Z,8.03
2023-04-27T17:55:42.941Z,7.65
2023-04-27T17:58:12.019Z,7.75
2023-04-27T18:00:41.122Z,7.97
2023-04-27T18:03:10.341Z,7.95
2023-04-27T18:05:39.718Z,8.13
2023-04-27T18:08:09.022Z,7.53
2023-04-27T18:10:37.905Z,7.78
2023-04-27T18:13:07.116Z,7.40
2023-04-27T18:15:36.405Z,7.45
2023-04-27T18:18:06.033Z,7.37
2023-04-27T18:20:35.100Z,7.30
2023-04-27T18:23:04.207Z,7.63
2023-04-27T18:25:33.506Z,7.20
2023-04-27T18:28:05.206Z,7.87
2023-04-27T18:30:33.030Z,7.20
2023-04-27T18:33:02.317Z,7.00
2023-04-27T18:35:31.421Z,6.70
2023-04-27T18:38:00.527Z,7.15
2023-04-27T18:40:29.808Z,7.50
2023-04-27T18:42:58.893Z,7.30
2023-04-27T18:45:28.000Z,7.75
2023-04-27T18:47:56.926Z,7.25
2023-04-27T18:50:26.511Z,7.45
2023-04-27T18:52:55.499Z,7.08
2023-04-27T18:55:24.791Z,7.12
2023-04-27T18:57:54.101Z,7.05
2023-04-27T19:00:23.207Z,7.03
2023-04-27T19:02:52.661Z,7.15
2023-04-27T19:05:22.255Z,7.00
2023-04-27T19:07:51.512Z,7.00
